createdAt,value
2018-12-17T00:01:51.912Z,-1.00
2018-12-17T00:04:22.664Z,-0.90
2018-12-17T00:06:53.389Z,-0.88
2018-12-17T00:09:24.190Z,-0.89
2018-12-17T00:11:56.070Z,-0.85
2018-12-17T00:14:26.856Z,-1.00
2018-12-17T00:16:57.596Z,-0.92
2018-12-17T00:19:28.449Z,-0.88
2018-12-17T00:21:59.184Z,-0.86
2018-12-17T00:24:29.977Z,-0.90
2018-12-17T00:27:00.716Z,-0.92
2018-12-17T00:29:33.586Z,-0.98
2018-12-17T00:32:04.328Z,-0.86
2018-12-17T00:34:35.068Z,-0.81
2018-12-17T00:37:05.792Z,-0.84
2018-12-17T00:39:36.564Z,-0.91
2018-12-17T00:42:07.306Z,-0.91
2018-12-17T00:44:38.053Z,-0.93
2018-12-17T00:47:08.774Z,-0.93
2018-12-17T00:49:39.506Z,-0.95
2018-12-17T00:52:10.333Z,-1.00
2018-12-17T00:54:41.122Z,-0.96
2018-12-17T00:57:11.850Z,-0.90
2018-12-17T00:59:42.699Z,-0.96
2018-12-17T01:02:13.580Z,-0.88
2018-12-17T01:04:44.346Z,-0.94
2018-12-17T01:07:17.217Z,-0.92
2018-12-17T01:09:48.010Z,-0.95
2018-12-17T01:12:32.665Z,-0.97
2018-12-17T01:15:04.170Z,-0.93
2018-12-17T01:17:35.036Z,-0.96
2018-12-17T01:20:06.017Z,-0.94
2018-12-17T01:22:36.745Z,-0.86
2018-12-17T01:25:07.492Z,-0.92
2018-12-17T01:27:38.252Z,-0.84
2018-12-17T01:30:09.148Z,-0.86
2018-12-17T01:32:40.296Z,-0.87
2018-12-17T01:35:11.167Z,-0.79
2018-12-17T01:37:41.912Z,-0.86
2018-12-17T01:40:12.706Z,-0.89
2018-12-17T01:42:43.466Z,-0.84
2018-12-17T01:45:14.356Z,-0.78
2018-12-17T01:47:45.111Z,-0.82
2018-12-17T01:50:15.949Z,-0.74
2018-12-17T01:52:46.689Z,-0.74
2018-12-17T01:55:17.419Z,-0.72
2018-12-17T01:57:48.134Z,-0.78
2018-12-17T02:00:19.007Z,-0.76
2018-12-17T02:02:49.762Z,-0.76
2018-12-17T02:05:20.493Z,-0.85
2018-12-17T02:07:51.267Z,-0.75
2018-12-17T02:10:22.012Z,-0.73
2018-12-17T02:12:52.765Z,-0.84
2018-12-17T02:15:23.630Z,-0.77
2018-12-17T02:17:54.688Z,-0.78
2018-12-17T02:20:25.559Z,-0.81
2018-12-17T02:22:56.293Z,-0.82
2018-12-17T02:25:27.164Z,-0.88
2018-12-17T02:27:57.994Z,-0.86
2018-12-17T02:30:28.794Z,-0.81
2018-12-17T02:32:59.547Z,-0.77
2018-12-17T02:35:30.301Z,-0.72
2018-12-17T02:38:01.026Z,-0.73
2018-12-17T02:40:31.810Z,-0.71
2018-12-17T02:43:02.551Z,-0.72
2018-12-17T02:45:33.328Z,-0.75
2018-12-17T02:48:04.059Z,-0.68
2018-12-17T02:50:34.836Z,-0.69
2018-12-17T02:53:05.657Z,-0.66
2018-12-17T02:55:36.384Z,-0.64
2018-12-17T02:58:07.130Z,-0.59
2018-12-17T03:00:38.000Z,-0.61
2018-12-17T03:03:08.734Z,-0.60
2018-12-17T03:05:39.476Z,-0.58
2018-12-17T03:08:10.192Z,-0.63
2018-12-17T03:10:40.963Z,-0.63
2018-12-17T03:13:11.843Z,-0.60
2018-12-17T03:15:42.618Z,-0.62
2018-12-17T03:18:13.388Z,-0.51
2018-12-17T03:20:44.506Z,-0.59
2018-12-17T03:23:15.272Z,-0.52
2018-12-17T03:25:46.052Z,-0.49
2018-12-17T03:28:16.797Z,-0.45
2018-12-17T03:30:47.619Z,-0.56
2018-12-17T03:33:18.351Z,-0.50
2018-12-17T03:35:49.132Z,-0.49
2018-12-17T03:38:19.857Z,-0.47
2018-12-17T03:40:50.634Z,-0.43
2018-12-17T03:43:21.450Z,-0.41
2018-12-17T03:45:52.199Z,-0.39
2018-12-17T03:48:22.944Z,-0.41
2018-12-17T03:50:53.693Z,-0.44
2018-12-17T03:53:24.428Z,-0.41
2018-12-17T03:55:55.201Z,-0.37
2018-12-17T03:58:25.916Z,-0.38
2018-12-17T04:00:56.804Z,-0.32
2018-12-17T04:03:27.529Z,-0.48
2018-12-17T04:05:58.292Z,-0.32
2018-12-17T04:08:29.176Z,-0.21
2018-12-17T04:10:59.949Z,-0.22
2018-12-17T04:13:30.674Z,-0.31
2018-12-17T04:16:01.556Z,-0.36
2018-12-17T04:18:32.705Z,-0.41
2018-12-17T04:21:03.625Z,-0.39
2018-12-17T04:23:34.359Z,-0.56
2018-12-17T04:26:05.111Z,-0.46
2018-12-17T04:28:35.851Z,-0.48
2018-12-17T04:31:06.612Z,-0.57
2018-12-17T04:33:37.437Z,-0.63
2018-12-17T04:36:08.356Z,-0.59
2018-12-17T04:38:39.096Z,-0.66
2018-12-17T04:41:09.881Z,-0.63
2018-12-17T04:43:40.601Z,-0.53
2018-12-17T04:46:11.373Z,-0.48
2018-12-17T04:48:42.105Z,-0.53
2018-12-17T04:51:12.949Z,-0.78
2018-12-17T04:53:43.778Z,-0.32
2018-12-17T04:56:14.564Z,-0.28
2018-12-17T04:58:45.398Z,-0.33
2018-12-17T05:01:16.296Z,-0.30
2018-12-17T05:03:47.067Z,-0.25
2018-12-17T05:06:17.796Z,-0.24
2018-12-17T05:08:48.545Z,-0.27
2018-12-17T05:11:19.323Z,-0.17
2018-12-17T05:13:50.154Z,-0.04
2018-12-17T05:16:20.912Z,-0.09
2018-12-17T05:18:51.639Z,-0.13
2018-12-17T05:21:22.410Z,-0.16
2018-12-17T05:23:53.124Z,-0.18
2018-12-17T05:26:23.888Z,-0.26
2018-12-17T05:28:54.613Z,-0.26
2018-12-17T05:31:25.350Z,-0.15
2018-12-17T05:33:56.152Z,-0.25
2018-12-17T05:36:26.912Z,-0.26
2018-12-17T05:38:57.649Z,-0.20
2018-12-17T05:41:28.423Z,-0.23
2018-12-17T05:43:59.142Z,-0.18
2018-12-17T05:46:29.960Z,-0.20
2018-12-17T05:49:00.714Z,-0.19
2018-12-17T05:51:31.569Z,-0.21
2018-12-17T05:54:02.412Z,-0.11
2018-12-17T05:56:33.199Z,-0.13
2018-12-17T05:59:04.027Z,-0.16
2018-12-17T06:01:34.824Z,-0.17
2018-12-17T06:04:05.554Z,-0.58
2018-12-17T06:06:36.331Z,-0.20
2018-12-17T06:09:09.072Z,-0.18
2018-12-17T06:11:40.188Z,-0.06
2018-12-17T06:14:10.925Z,-0.10
2018-12-17T06:16:41.685Z,-0.04
2018-12-17T06:19:12.407Z,-0.06
2018-12-17T06:21:43.297Z,-0.09
2018-12-17T06:24:14.033Z,-0.05
2018-12-17T06:26:44.920Z,-0.11
2018-12-17T06:29:15.628Z,-0.06
2018-12-17T06:31:46.418Z,-0.11
2018-12-17T06:34:17.137Z,-0.11
2018-12-17T06:36:47.924Z,0.00
2018-12-17T06:39:18.655Z,-0.05
2018-12-17T06:41:49.391Z,0.14
2018-12-17T06:44:20.120Z,0.16
2018-12-17T06:46:50.877Z,0.09
2018-12-17T06:49:21.602Z,0.03
2018-12-17T06:51:53.048Z,0.09
2018-12-17T06:54:23.996Z,0.14
2018-12-17T06:56:54.736Z,0.20
2018-12-17T06:59:25.471Z,0.28
2018-12-17T07:01:56.457Z,0.20
2018-12-17T07:04:27.182Z,0.24
2018-12-17T07:06:57.953Z,0.26
2018-12-17T07:09:28.658Z,0.24
2018-12-17T07:11:59.429Z,0.29
2018-12-17T07:14:36.315Z,0.39
2018-12-17T07:17:03.033Z,0.34
2018-12-17T07:19:39.730Z,0.35
2018-12-17T07:22:10.549Z,0.40
2018-12-17T07:24:41.350Z,0.42
2018-12-17T07:27:12.207Z,0.47
2018-12-17T07:29:49.545Z,0.53
2018-12-17T07:32:15.826Z,0.60
2018-12-17T07:34:46.841Z,0.50
2018-12-17T07:37:17.812Z,0.53
2018-12-17T07:39:48.751Z,0.57
2018-12-17T07:42:19.669Z,0.60
2018-12-17T07:44:50.456Z,0.65
2018-12-17T07:47:21.263Z,0.55
2018-12-17T07:49:52.073Z,0.67
2018-12-17T07:52:22.866Z,0.77
2018-12-17T07:54:53.636Z,0.88
2018-12-17T07:57:24.509Z,0.76
2018-12-17T07:59:56.906Z,0.76
2018-12-17T08:02:28.084Z,0.76
2018-12-17T08:04:58.894Z,0.67
2018-12-17T08:07:29.774Z,0.82
2018-12-17T08:10:00.528Z,0.68
2018-12-17T08:12:31.377Z,0.77
2018-12-17T08:15:02.790Z,0.84
2018-12-17T08:17:33.707Z,0.91
2018-12-17T08:20:05.183Z,0.95
2018-12-17T08:22:36.014Z,1.05
2018-12-17T08:25:06.906Z,1.11
2018-12-17T08:27:37.707Z,0.98
2018-12-17T08:30:08.618Z,1.03
2018-12-17T08:32:39.431Z,1.10
2018-12-17T08:35:10.233Z,1.03
2018-12-17T08:37:41.084Z,0.65
2018-12-17T08:40:12.922Z,1.05
2018-12-17T08:42:43.770Z,1.13
2018-12-17T08:45:14.536Z,1.14
2018-12-17T08:47:45.377Z,1.08
2018-12-17T08:50:18.208Z,1.20
2018-12-17T08:52:49.155Z,1.30
2018-12-17T08:55:19.965Z,1.34
2018-12-17T08:57:50.807Z,1.41
2018-12-17T09:00:21.622Z,1.52
2018-12-17T09:02:52.408Z,1.49
2018-12-17T09:05:23.252Z,1.79
2018-12-17T09:07:54.094Z,1.87
2018-12-17T09:10:24.943Z,1.77
2018-12-17T09:12:55.819Z,1.58
2018-12-17T09:15:26.612Z,1.66
2018-12-17T09:17:58.472Z,1.36
2018-12-17T09:20:29.293Z,1.38
2018-12-17T09:23:01.158Z,1.53
2018-12-17T09:25:32.146Z,1.50
2018-12-17T09:28:03.114Z,1.41
2018-12-17T09:30:41.291Z,1.57
2018-12-17T09:33:09.862Z,1.73
2018-12-17T09:35:40.651Z,1.68
2018-12-17T09:38:11.583Z,1.61
2018-12-17T09:40:42.385Z,1.48
2018-12-17T09:43:13.328Z,1.39
2018-12-17T09:45:44.128Z,1.43
2018-12-17T09:48:15.030Z,1.29
2018-12-17T09:50:45.802Z,1.41
2018-12-17T09:53:16.591Z,1.48
2018-12-17T09:55:47.373Z,1.51
2018-12-17T09:58:18.268Z,1.49
2018-12-17T10:57:20.949Z,2.33
2018-12-17T10:59:51.725Z,2.00
2018-12-17T11:02:24.624Z,2.10
2018-12-17T11:04:57.449Z,1.99
2018-12-17T11:07:28.246Z,2.02
2018-12-17T11:10:01.139Z,2.04
2018-12-17T11:12:31.908Z,2.40
2018-12-17T11:15:04.673Z,2.42
2018-12-17T11:17:35.408Z,2.40
2018-12-17T11:20:06.412Z,2.20
2018-12-17T11:22:37.365Z,2.12
2018-12-17T11:25:08.286Z,2.06
2018-12-17T11:27:39.016Z,2.20
2018-12-17T11:30:09.856Z,2.20
2018-12-17T11:32:54.646Z,1.97
2018-12-17T11:35:25.385Z,1.99
2018-12-17T11:38:02.534Z,2.22
2018-12-17T11:43:35.393Z,2.22
2018-12-17T11:46:08.176Z,2.37
2018-12-17T11:48:39.624Z,2.20
2018-12-17T11:51:10.452Z,2.23
2018-12-17T11:53:48.746Z,2.24
2018-12-17T11:56:23.489Z,2.01
2018-12-17T11:59:05.642Z,2.05
2018-12-17T12:01:36.426Z,1.82
2018-12-17T12:04:09.233Z,2.01
2018-12-17T12:06:39.989Z,2.00
2018-12-17T12:09:12.728Z,2.03
2018-12-17T12:14:48.586Z,2.08
2018-12-17T12:17:31.995Z,1.85
2018-12-17T12:20:03.349Z,1.76
2018-12-17T12:22:36.233Z,1.89
2018-12-17T12:25:06.965Z,1.88
2018-12-17T12:27:38.830Z,1.99
2018-12-17T12:30:12.092Z,2.19
2018-12-17T12:32:42.840Z,2.29
2018-12-17T12:35:13.596Z,2.15
2018-12-17T12:37:44.452Z,2.30
2018-12-17T12:40:17.265Z,2.00
2018-12-17T12:42:51.666Z,1.94
2018-12-17T12:45:20.765Z,1.90
2018-12-17T12:47:51.510Z,1.97
2018-12-17T12:50:23.277Z,1.90
2018-12-17T12:52:54.032Z,1.83
2018-12-17T12:55:24.757Z,1.84
2018-12-17T12:58:03.678Z,2.02
2018-12-17T13:00:35.227Z,1.90
2018-12-17T13:03:05.997Z,1.83
2018-12-17T13:05:36.732Z,1.83
2018-12-17T13:08:07.514Z,1.68
2018-12-17T13:10:46.678Z,1.91
2018-12-17T13:13:26.136Z,1.95
2018-12-17T13:15:56.889Z,2.07
2018-12-17T13:18:29.838Z,1.94
2018-12-17T13:21:20.181Z,1.87
2018-12-17T13:23:52.022Z,1.83
2018-12-17T13:26:28.773Z,1.88
2018-12-17T13:28:59.553Z,1.83
2018-12-17T13:31:39.280Z,1.83
2018-12-17T13:34:10.115Z,1.76
2018-12-17T13:36:44.155Z,1.48
2018-12-17T13:39:14.958Z,1.40
2018-12-17T13:41:46.785Z,1.37
2018-12-17T13:44:18.542Z,1.41
2018-12-17T13:46:51.319Z,1.39
2018-12-17T13:49:22.297Z,1.42
2018-12-17T13:52:00.296Z,1.44
2018-12-17T13:54:32.050Z,1.44
2018-12-17T13:57:04.031Z,1.47
2018-12-17T13:59:36.144Z,1.46
2018-12-17T14:02:10.023Z,1.42
2018-12-17T14:04:40.775Z,1.41
2018-12-17T14:07:11.985Z,1.34
2018-12-17T14:09:55.734Z,1.37
2018-12-17T14:12:26.484Z,1.37
2018-12-17T14:14:57.255Z,1.34
2018-12-17T14:17:34.235Z,1.34
2018-12-17T14:20:11.996Z,1.29
2018-12-17T14:22:43.789Z,1.30
2018-12-17T14:25:14.668Z,1.40
2018-12-17T14:27:45.398Z,1.35
2018-12-17T14:30:16.273Z,1.34
2018-12-17T14:32:47.058Z,0.22
2018-12-17T14:35:17.800Z,1.38
2018-12-17T14:37:54.677Z,1.24
2018-12-17T14:40:25.437Z,1.22
2018-12-17T14:42:56.265Z,1.19
2018-12-17T14:45:27.133Z,1.13
2018-12-17T14:47:57.884Z,1.15
2018-12-17T14:50:28.693Z,1.17
2018-12-17T14:56:03.438Z,1.14
2018-12-17T14:58:34.267Z,1.16
2018-12-17T15:01:05.030Z,1.12
2018-12-17T15:03:35.765Z,1.16
2018-12-17T15:06:06.493Z,1.17
2018-12-17T15:08:37.241Z,1.21
2018-12-17T15:11:08.015Z,1.08
2018-12-17T15:13:38.761Z,1.22
2018-12-17T15:16:09.515Z,1.27
2018-12-17T15:18:40.260Z,1.25
2018-12-17T15:21:11.093Z,1.18
2018-12-17T15:23:41.857Z,1.16
2018-12-17T15:26:19.586Z,1.18
2018-12-17T15:28:50.337Z,1.16
2018-12-17T15:31:21.118Z,1.26
2018-12-17T15:33:51.987Z,1.23
2018-12-17T15:36:22.845Z,1.22
2018-12-17T15:38:53.588Z,1.29
2018-12-17T15:41:24.420Z,1.30
2018-12-17T15:43:55.160Z,1.32
2018-12-17T15:46:26.036Z,1.32
2018-12-17T15:48:56.805Z,1.33
2018-12-17T15:51:27.576Z,1.34
2018-12-17T15:53:58.343Z,1.37
2018-12-17T15:56:29.070Z,1.33
2018-12-17T15:58:59.810Z,1.27
2018-12-17T16:01:30.541Z,1.32
2018-12-17T16:04:01.311Z,1.26
2018-12-17T16:06:32.145Z,1.21
2018-12-17T16:09:05.201Z,1.22
2018-12-17T16:11:35.965Z,1.29
2018-12-17T16:14:06.781Z,1.34
2018-12-17T16:16:37.517Z,1.32
2018-12-17T16:19:08.233Z,1.27
2018-12-17T16:21:38.983Z,1.31
2018-12-17T16:24:09.728Z,1.37
2018-12-17T16:26:40.479Z,1.30
2018-12-17T16:29:11.220Z,1.32
2018-12-17T16:31:41.949Z,1.39
2018-12-17T16:34:12.695Z,1.34
2018-12-17T16:36:43.971Z,1.37
2018-12-17T16:39:14.761Z,1.25
2018-12-17T16:41:45.513Z,1.34
2018-12-17T16:44:16.235Z,1.25
2018-12-17T16:46:46.988Z,1.32
2018-12-17T16:49:17.735Z,1.32
2018-12-17T16:51:48.498Z,1.35
2018-12-17T16:54:19.349Z,1.30
2018-12-17T16:56:50.088Z,1.33
2018-12-17T16:59:20.868Z,1.31
2018-12-17T17:01:51.664Z,1.31
2018-12-17T17:04:22.487Z,1.33
2018-12-17T17:06:53.280Z,1.39
2018-12-17T17:09:24.188Z,1.38
2018-12-17T17:11:54.949Z,1.42
2018-12-17T17:14:25.708Z,1.39
2018-12-17T17:16:56.570Z,1.44
2018-12-17T17:19:27.312Z,1.48
2018-12-17T17:21:58.300Z,1.43
2018-12-17T17:24:29.104Z,1.35
2018-12-17T17:26:59.830Z,1.33
2018-12-17T17:29:30.576Z,1.41
2018-12-17T17:32:01.306Z,1.36
2018-12-17T17:34:32.066Z,1.37
2018-12-17T17:37:02.982Z,1.29
2018-12-17T17:39:33.834Z,1.38
2018-12-17T17:42:04.826Z,1.29
2018-12-17T17:44:35.638Z,1.25
2018-12-17T17:47:06.424Z,1.24
2018-12-17T17:49:37.210Z,1.26
2018-12-17T17:52:07.985Z,1.36
2018-12-17T17:54:38.729Z,1.35
2018-12-17T17:57:09.583Z,1.38
2018-12-17T17:59:40.321Z,1.34
2018-12-17T18:02:11.065Z,1.33
2018-12-17T18:04:41.838Z,1.31
2018-12-17T18:07:12.607Z,1.29
2018-12-17T18:09:43.361Z,1.32
2018-12-17T18:12:14.234Z,1.32
2018-12-17T18:14:45.011Z,1.42
2018-12-17T18:17:15.768Z,1.38
2018-12-17T18:19:46.549Z,1.37
2018-12-17T18:22:17.321Z,1.37
2018-12-17T18:24:48.075Z,1.38
2018-12-17T18:27:18.837Z,1.31
2018-12-17T18:29:49.581Z,1.30
2018-12-17T18:32:26.006Z,1.36
2018-12-17T18:34:53.149Z,1.35
2018-12-17T18:37:23.939Z,1.30
2018-12-17T18:39:54.681Z,1.35
2018-12-17T18:42:25.478Z,1.33
2018-12-17T18:44:56.357Z,1.31
2018-12-17T18:47:27.267Z,1.34
2018-12-17T18:49:58.013Z,1.37
2018-12-17T18:52:28.921Z,1.33
2018-12-17T18:54:59.680Z,1.34
2018-12-17T18:57:30.547Z,1.34
2018-12-17T19:00:01.526Z,1.31
2018-12-17T19:02:33.198Z,1.40
2018-12-17T19:05:04.248Z,1.33
2018-12-17T19:07:35.051Z,1.36
2018-12-17T19:10:05.933Z,1.45
2018-12-17T19:12:37.132Z,1.41
2018-12-17T19:15:08.249Z,1.34
2018-12-17T19:17:39.013Z,1.37
2018-12-17T19:20:09.759Z,1.36
2018-12-17T19:22:40.561Z,1.33
2018-12-17T19:25:11.324Z,1.29
2018-12-17T19:27:42.107Z,1.26
2018-12-17T19:30:13.775Z,1.28
2018-12-17T19:32:44.620Z,0.94
2018-12-17T19:35:15.362Z,1.36
2018-12-17T19:37:46.158Z,1.37
2018-12-17T19:40:16.905Z,1.38
2018-12-17T19:42:47.677Z,1.42
2018-12-17T19:45:18.449Z,1.38
2018-12-17T19:47:49.196Z,1.39
2018-12-17T19:50:19.921Z,1.47
2018-12-17T19:52:50.741Z,1.41
2018-12-17T19:55:21.501Z,1.40
2018-12-17T19:57:52.258Z,1.40
2018-12-17T20:00:23.130Z,1.33
2018-12-17T20:02:54.023Z,1.31
2018-12-17T20:05:24.756Z,1.33
2018-12-17T20:07:55.557Z,1.41
2018-12-17T20:10:26.282Z,1.41
2018-12-17T20:12:57.076Z,1.42
2018-12-17T20:15:27.809Z,1.37
2018-12-17T20:17:58.600Z,1.35
2018-12-17T20:20:29.337Z,1.45
2018-12-17T20:23:00.111Z,1.48
2018-12-17T20:25:30.945Z,1.44
2018-12-17T20:28:01.864Z,1.08
2018-12-17T20:30:32.603Z,1.50
2018-12-17T20:33:03.398Z,1.42
2018-12-17T20:35:34.238Z,1.42
2018-12-17T20:38:05.032Z,1.48
2018-12-17T20:40:35.785Z,1.46
2018-12-17T20:43:06.546Z,1.38
2018-12-17T20:45:37.382Z,1.29
2018-12-17T20:48:08.328Z,1.13
2018-12-17T20:50:39.168Z,1.14
2018-12-17T20:53:10.193Z,1.17
2018-12-17T20:55:40.944Z,1.22
2018-12-17T20:58:11.749Z,1.27
2018-12-17T21:00:42.521Z,1.28
2018-12-17T21:03:13.271Z,1.22
2018-12-17T21:05:44.027Z,1.12
2018-12-17T21:08:14.781Z,1.04
2018-12-17T21:10:45.521Z,0.88
2018-12-17T21:13:16.345Z,0.91
2018-12-17T21:15:47.093Z,0.89
2018-12-17T21:18:17.898Z,0.93
2018-12-17T21:20:48.737Z,1.04
2018-12-17T21:23:19.911Z,1.15
2018-12-17T21:25:50.897Z,1.04
2018-12-17T21:28:21.713Z,1.17
2018-12-17T21:30:52.500Z,1.20
2018-12-17T21:33:23.264Z,1.29
2018-12-17T21:35:53.984Z,1.26
2018-12-17T21:38:24.733Z,1.25
2018-12-17T21:40:55.450Z,1.33
2018-12-17T21:43:26.226Z,1.35
2018-12-17T21:45:57.310Z,1.34
2018-12-17T21:48:28.154Z,1.38
2018-12-17T21:50:59.085Z,1.39
2018-12-17T21:53:29.922Z,1.36
2018-12-17T21:56:00.826Z,1.48
2018-12-17T21:58:31.689Z,1.40
2018-12-17T22:01:02.459Z,1.44
2018-12-17T22:03:33.612Z,1.42
2018-12-17T22:06:04.425Z,1.40
2018-12-17T22:08:35.424Z,1.41
2018-12-17T22:11:06.253Z,1.47
2018-12-17T22:13:37.158Z,1.47
2018-12-17T22:16:09.204Z,1.50
2018-12-17T22:18:40.034Z,1.42
2018-12-17T22:21:10.787Z,1.36
2018-12-17T22:23:41.569Z,1.28
2018-12-17T22:26:12.327Z,1.17
2018-12-17T22:28:50.105Z,1.10
2018-12-17T22:31:20.839Z,1.05
2018-12-17T22:33:51.615Z,1.01
2018-12-17T22:36:22.510Z,0.96
2018-12-17T22:38:53.300Z,1.08
2018-12-17T22:41:24.016Z,1.23
2018-12-17T22:43:54.790Z,1.25
2018-12-17T22:46:25.526Z,1.26
2018-12-17T22:48:56.383Z,1.24
2018-12-17T22:51:27.117Z,1.19
2018-12-17T22:53:58.114Z,1.16
2018-12-17T22:56:28.988Z,1.14
2018-12-17T22:58:59.829Z,1.14
2018-12-17T23:01:31.076Z,1.06
2018-12-17T23:04:01.969Z,1.07
2018-12-17T23:06:32.940Z,0.95
2018-12-17T23:09:05.069Z,0.84
2018-12-17T23:11:54.319Z,0.88
2018-12-17T23:14:37.507Z,0.98
2018-12-17T23:17:20.646Z,1.06
2018-12-17T23:19:51.499Z,1.11
2018-12-17T23:22:22.227Z,1.23
2018-12-17T23:24:53.225Z,1.18
2018-12-17T23:27:23.995Z,1.27
2018-12-17T23:29:54.865Z,1.26
2018-12-17T23:32:29.629Z,1.18
2018-12-17T23:35:00.635Z,1.11
2018-12-17T23:37:31.416Z,1.09
2018-12-17T23:40:03.721Z,1.22
2018-12-17T23:42:34.452Z,1.18
2018-12-17T23:45:05.310Z,1.12
2018-12-17T23:47:36.039Z,1.21
2018-12-17T23:50:06.919Z,1.15
2018-12-17T23:52:37.662Z,1.11
2018-12-17T23:55:08.524Z,1.11
2018-12-17T23:57:39.265Z,1.16
